sensor_id;sensor_type;location;lat;lon;timestamp;P1;durP1;ratioP1;P2;durP2;ratioP2
5412;SDS011;2729;50.056;8.678;2022-11-25T00:00:52;6.63;;;3.57;;
5412;SDS011;2729;50.056;8.678;2022-11-25T00:03:18;9.20;;;3.13;;
5412;SDS011;2729;50.056;8.678;2022-11-25T00:05:44;9.10;;;3.50;;
5412;SDS011;2729;50.056;8.678;2022-11-25T00:08:10;7.03;;;3.17;;
5412;SDS011;2729;50.056;8.678;2022-11-25T00:10:36;9.70;;;2.90;;
5412;SDS011;2729;50.056;8.678;2022-11-25T00:13:02;4.50;;;2.37;;
5412;SDS011;2729;50.056;8.678;2022-11-25T00:15:29;4.73;;;2.97;;
5412;SDS011;2729;50.056;8.678;2022-11-25T00:17:55;3.17;;;2.67;;
5412;SDS011;2729;50.056;8.678;2022-11-25T00:20:21;7.83;;;3.43;;
5412;SDS011;2729;50.056;8.678;2022-11-25T00:22:47;7.90;;;3.60;;
5412;SDS011;2729;50.056;8.678;2022-11-25T00:25:13;17.23;;;3.20;;
5412;SDS011;2729;50.056;8.678;2022-11-25T00:27:41;12.03;;;2.90;;
5412;SDS011;2729;50.056;8.678;2022-11-25T00:30:07;12.93;;;3.57;;
5412;SDS011;2729;50.056;8.678;2022-11-25T00:32:33;6.53;;;2.60;;
5412;SDS011;2729;50.056;8.678;2022-11-25T00:34:59;7.00;;;3.23;;
5412;SDS011;2729;50.056;8.678;2022-11-25T00:37:25;5.80;;;3.30;;
5412;SDS011;2729;50.056;8.678;2022-11-25T00:39:51;7.60;;;3.57;;
5412;SDS011;2729;50.056;8.678;2022-11-25T00:42:17;3.97;;;2.90;;
5412;SDS011;2729;50.056;8.678;2022-11-25T00:45:01;6.40;;;3.00;;
5412;SDS011;2729;50.056;8.678;2022-11-25T00:47:27;3.33;;;3.03;;
5412;SDS011;2729;50.056;8.678;2022-11-25T00:49:55;5.03;;;2.13;;
5412;SDS011;2729;50.056;8.678;2022-11-25T00:52:22;10.07;;;2.20;;
5412;SDS011;2729;50.056;8.678;2022-11-25T00:54:49;3.57;;;2.27;;
5412;SDS011;2729;50.056;8.678;2022-11-25T00:57:17;2.67;;;2.47;;
5412;SDS011;2729;50.056;8.678;2022-11-25T00:59:44;6.13;;;2.60;;
5412;SDS011;2729;50.056;8.678;2022-11-25T01:02:11;9.17;;;2.57;;
5412;SDS011;2729;50.056;8.678;2022-11-25T01:04:38;3.93;;;2.37;;
5412;SDS011;2729;50.056;8.678;2022-11-25T01:07:04;7.50;;;2.93;;
5412;SDS011;2729;50.056;8.678;2022-11-25T01:09:30;7.37;;;2.80;;
5412;SDS011;2729;50.056;8.678;2022-11-25T01:11:57;6.30;;;3.00;;
5412;SDS011;2729;50.056;8.678;2022-11-25T01:14:23;6.27;;;2.80;;
5412;SDS011;2729;50.056;8.678;2022-11-25T01:16:49;11.07;;;3.13;;
5412;SDS011;2729;50.056;8.678;2022-11-25T01:19:16;6.60;;;2.60;;
5412;SDS011;2729;50.056;8.678;2022-11-25T01:21:42;3.53;;;2.50;;
5412;SDS011;2729;50.056;8.678;2022-11-25T01:24:11;9.30;;;3.17;;
5412;SDS011;2729;50.056;8.678;2022-11-25T01:26:39;6.67;;;2.53;;
5412;SDS011;2729;50.056;8.678;2022-11-25T01:29:06;9.57;;;3.20;;
5412;SDS011;2729;50.056;8.678;2022-11-25T01:31:37;4.97;;;2.50;;
5412;SDS011;2729;50.056;8.678;2022-11-25T01:34:04;5.50;;;2.53;;
5412;SDS011;2729;50.056;8.678;2022-11-25T01:36:30;4.63;;;2.73;;
5412;SDS011;2729;50.056;8.678;2022-11-25T01:38:57;7.07;;;2.43;;
5412;SDS011;2729;50.056;8.678;2022-11-25T01:41:25;6.50;;;2.80;;
5412;SDS011;2729;50.056;8.678;2022-11-25T01:46:30;4.67;;;2.40;;
5412;SDS011;2729;50.056;8.678;2022-11-25T01:49:11;2.67;;;2.47;;
5412;SDS011;2729;50.056;8.678;2022-11-25T01:54:24;6.20;;;2.50;;
5412;SDS011;2729;50.056;8.678;2022-11-25T01:56:58;10.60;;;3.00;;
5412;SDS011;2729;50.056;8.678;2022-11-25T01:59:27;9.23;;;2.87;;
5412;SDS011;2729;50.056;8.678;2022-11-25T02:01:56;3.20;;;2.63;;
5412;SDS011;2729;50.056;8.678;2022-11-25T02:04:24;4.60;;;3.53;;
5412;SDS011;2729;50.056;8.678;2022-11-25T02:06:56;8.03;;;3.70;;
5412;SDS011;2729;50.056;8.678;2022-11-25T02:09:29;6.93;;;3.50;;
5412;SDS011;2729;50.056;8.678;2022-11-25T02:11:56;15.23;;;3.10;;
5412;SDS011;2729;50.056;8.678;2022-11-25T02:14:22;5.93;;;3.83;;
5412;SDS011;2729;50.056;8.678;2022-11-25T02:16:50;5.50;;;3.70;;
5412;SDS011;2729;50.056;8.678;2022-11-25T02:19:19;4.60;;;3.53;;
5412;SDS011;2729;50.056;8.678;2022-11-25T02:21:55;10.93;;;3.50;;
5412;SDS011;2729;50.056;8.678;2022-11-25T02:24:33;6.23;;;3.40;;
5412;SDS011;2729;50.056;8.678;2022-11-25T02:27:06;7.23;;;3.80;;
5412;SDS011;2729;50.056;8.678;2022-11-25T02:29:33;8.70;;;3.80;;
5412;SDS011;2729;50.056;8.678;2022-11-25T02:31:59;6.80;;;3.70;;
5412;SDS011;2729;50.056;8.678;2022-11-25T02:34:25;10.00;;;3.57;;
5412;SDS011;2729;50.056;8.678;2022-11-25T02:36:51;6.33;;;3.43;;
5412;SDS011;2729;50.056;8.678;2022-11-25T02:39:18;11.93;;;3.67;;
5412;SDS011;2729;50.056;8.678;2022-11-25T02:41:46;4.63;;;3.50;;
5412;SDS011;2729;50.056;8.678;2022-11-25T02:44:18;10.37;;;4.70;;
5412;SDS011;2729;50.056;8.678;2022-11-25T02:46:45;10.83;;;4.73;;
5412;SDS011;2729;50.056;8.678;2022-11-25T02:49:11;7.30;;;4.00;;
5412;SDS011;2729;50.056;8.678;2022-11-25T02:51:40;4.43;;;3.23;;
5412;SDS011;2729;50.056;8.678;2022-11-25T02:54:09;6.60;;;3.63;;
5412;SDS011;2729;50.056;8.678;2022-11-25T02:56:37;11.53;;;3.97;;
5412;SDS011;2729;50.056;8.678;2022-11-25T02:59:03;3.90;;;3.13;;
5412;SDS011;2729;50.056;8.678;2022-11-25T03:01:30;5.00;;;3.77;;
5412;SDS011;2729;50.056;8.678;2022-11-25T03:03:56;5.90;;;4.00;;
5412;SDS011;2729;50.056;8.678;2022-11-25T03:06:22;5.07;;;3.50;;
5412;SDS011;2729;50.056;8.678;2022-11-25T03:08:48;9.50;;;3.23;;
5412;SDS011;2729;50.056;8.678;2022-11-25T03:11:14;13.43;;;3.87;;
5412;SDS011;2729;50.056;8.678;2022-11-25T03:13:41;6.90;;;4.40;;
5412;SDS011;2729;50.056;8.678;2022-11-25T03:16:08;5.10;;;3.50;;
5412;SDS011;2729;50.056;8.678;2022-11-25T03:18:34;4.27;;;3.40;;
5412;SDS011;2729;50.056;8.678;2022-11-25T03:21:00;4.87;;;3.87;;
5412;SDS011;2729;50.056;8.678;2022-11-25T03:23:26;5.80;;;3.60;;
5412;SDS011;2729;50.056;8.678;2022-11-25T03:25:53;6.47;;;3.27;;
5412;SDS011;2729;50.056;8.678;2022-11-25T03:28:19;9.70;;;3.47;;
5412;SDS011;2729;50.056;8.678;2022-11-25T03:30:45;4.60;;;3.63;;
5412;SDS011;2729;50.056;8.678;2022-11-25T03:33:11;10.23;;;3.70;;
5412;SDS011;2729;50.056;8.678;2022-11-25T03:35:38;5.13;;;3.83;;
5412;SDS011;2729;50.056;8.678;2022-11-25T03:38:04;4.90;;;3.83;;
5412;SDS011;2729;50.056;8.678;2022-11-25T03:40:33;8.60;;;2.97;;
5412;SDS011;2729;50.056;8.678;2022-11-25T03:42:59;7.60;;;3.90;;
5412;SDS011;2729;50.056;8.678;2022-11-25T03:45:26;3.80;;;3.50;;
5412;SDS011;2729;50.056;8.678;2022-11-25T03:47:53;5.07;;;3.03;;
5412;SDS011;2729;50.056;8.678;2022-11-25T03:50:19;5.80;;;3.57;;
5412;SDS011;2729;50.056;8.678;2022-11-25T03:52:45;6.20;;;4.00;;
5412;SDS011;2729;50.056;8.678;2022-11-25T03:55:12;11.70;;;3.70;;
5412;SDS011;2729;50.056;8.678;2022-11-25T03:57:40;8.90;;;4.07;;
5412;SDS011;2729;50.056;8.678;2022-11-25T04:00:07;7.40;;;4.20;;
5412;SDS011;2729;50.056;8.678;2022-11-25T04:02:56;8.10;;;3.33;;
5412;SDS011;2729;50.056;8.678;2022-11-25T04:05:22;4.63;;;3.50;;
5412;SDS011;2729;50.056;8.678;2022-11-25T04:07:49;6.50;;;3.97;;
5412;SDS011;2729;50.056;8.678;2022-11-25T04:10:15;9.07;;;4.03;;
5412;SDS011;2729;50.056;8.678;2022-11-25T04:12:42;3.80;;;3.40;;
5412;SDS011;2729;50.056;8.678;2022-11-25T04:15:18;5.70;;;3.70;;
5412;SDS011;2729;50.056;8.678;2022-11-25T04:17:49;4.17;;;3.03;;
5412;SDS011;2729;50.056;8.678;2022-11-25T04:20:15;7.50;;;3.53;;
5412;SDS011;2729;50.056;8.678;2022-11-25T04:22:45;5.10;;;3.50;;
5412;SDS011;2729;50.056;8.678;2022-11-25T04:25:21;5.80;;;3.97;;
5412;SDS011;2729;50.056;8.678;2022-11-25T04:27:47;6.17;;;3.83;;
5412;SDS011;2729;50.056;8.678;2022-11-25T04:30:16;6.67;;;3.97;;
5412;SDS011;2729;50.056;8.678;2022-11-25T04:32:43;6.03;;;3.60;;
5412;SDS011;2729;50.056;8.678;2022-11-25T04:35:11;8.83;;;3.60;;
5412;SDS011;2729;50.056;8.678;2022-11-25T04:37:40;4.83;;;3.57;;
5412;SDS011;2729;50.056;8.678;2022-11-25T04:40:08;4.47;;;3.53;;
5412;SDS011;2729;50.056;8.678;2022-11-25T04:42:34;7.73;;;3.80;;
5412;SDS011;2729;50.056;8.678;2022-11-25T04:45:06;9.47;;;4.00;;
5412;SDS011;2729;50.056;8.678;2022-11-25T04:47:35;6.83;;;4.17;;
5412;SDS011;2729;50.056;8.678;2022-11-25T04:50:03;7.30;;;3.67;;
5412;SDS011;2729;50.056;8.678;2022-11-25T04:52:30;7.40;;;3.70;;
5412;SDS011;2729;50.056;8.678;2022-11-25T04:54:56;3.63;;;3.23;;
5412;SDS011;2729;50.056;8.678;2022-11-25T04:57:22;6.67;;;3.30;;
5412;SDS011;2729;50.056;8.678;2022-11-25T04:59:50;8.37;;;3.60;;
5412;SDS011;2729;50.056;8.678;2022-11-25T05:02:18;16.13;;;4.20;;
5412;SDS011;2729;50.056;8.678;2022-11-25T05:04:56;5.53;;;3.90;;
5412;SDS011;2729;50.056;8.678;2022-11-25T05:07:23;4.57;;;3.50;;
5412;SDS011;2729;50.056;8.678;2022-11-25T05:09:52;6.83;;;3.40;;
5412;SDS011;2729;50.056;8.678;2022-11-25T05:12:30;11.83;;;3.77;;
5412;SDS011;2729;50.056;8.678;2022-11-25T05:14:57;5.63;;;4.37;;
5412;SDS011;2729;50.056;8.678;2022-11-25T05:17:25;3.07;;;2.73;;
5412;SDS011;2729;50.056;8.678;2022-11-25T05:19:53;3.53;;;3.20;;
5412;SDS011;2729;50.056;8.678;2022-11-25T05:22:20;2.67;;;2.43;;
5412;SDS011;2729;50.056;8.678;2022-11-25T05:24:51;6.27;;;3.23;;
5412;SDS011;2729;50.056;8.678;2022-11-25T05:27:18;5.20;;;3.17;;
5412;SDS011;2729;50.056;8.678;2022-11-25T05:29:45;7.67;;;3.53;;
5412;SDS011;2729;50.056;8.678;2022-11-25T05:32:12;6.97;;;4.57;;
5412;SDS011;2729;50.056;8.678;2022-11-25T05:34:38;9.40;;;4.53;;
5412;SDS011;2729;50.056;8.678;2022-11-25T05:37:06;11.57;;;3.80;;
5412;SDS011;2729;50.056;8.678;2022-11-25T05:39:34;7.27;;;3.80;;
5412;SDS011;2729;50.056;8.678;2022-11-25T05:42:19;9.73;;;4.07;;
5412;SDS011;2729;50.056;8.678;2022-11-25T05:44:45;6.50;;;3.20;;
5412;SDS011;2729;50.056;8.678;2022-11-25T05:47:11;4.17;;;2.80;;
5412;SDS011;2729;50.056;8.678;2022-11-25T05:49:38;8.30;;;3.80;;
5412;SDS011;2729;50.056;8.678;2022-11-25T05:52:07;5.77;;;3.90;;
5412;SDS011;2729;50.056;8.678;2022-11-25T05:54:41;8.60;;;3.40;;
5412;SDS011;2729;50.056;8.678;2022-11-25T05:57:07;6.10;;;3.77;;
5412;SDS011;2729;50.056;8.678;2022-11-25T05:59:45;10.20;;;3.50;;
5412;SDS011;2729;50.056;8.678;2022-11-25T06:02:18;8.87;;;3.43;;
5412;SDS011;2729;50.056;8.678;2022-11-25T06:04:44;8.70;;;3.97;;
5412;SDS011;2729;50.056;8.678;2022-11-25T06:07:10;5.70;;;3.93;;
5412;SDS011;2729;50.056;8.678;2022-11-25T06:09:38;6.60;;;3.93;;
5412;SDS011;2729;50.056;8.678;2022-11-25T06:12:06;3.97;;;2.73;;
5412;SDS011;2729;50.056;8.678;2022-11-25T06:14:36;10.73;;;3.93;;
5412;SDS011;2729;50.056;8.678;2022-11-25T06:17:02;10.10;;;3.60;;
5412;SDS011;2729;50.056;8.678;2022-11-25T06:19:33;6.13;;;4.20;;
5412;SDS011;2729;50.056;8.678;2022-11-25T06:21:59;6.60;;;3.63;;
5412;SDS011;2729;50.056;8.678;2022-11-25T06:24:26;6.50;;;3.47;;
5412;SDS011;2729;50.056;8.678;2022-11-25T06:26:57;4.90;;;3.60;;
5412;SDS011;2729;50.056;8.678;2022-11-25T06:29:25;5.67;;;3.57;;
5412;SDS011;2729;50.056;8.678;2022-11-25T06:31:51;9.20;;;3.87;;
5412;SDS011;2729;50.056;8.678;2022-11-25T06:34:33;5.90;;;3.50;;
5412;SDS011;2729;50.056;8.678;2022-11-25T06:37:03;11.80;;;4.97;;
5412;SDS011;2729;50.056;8.678;2022-11-25T06:39:29;8.33;;;3.70;;
5412;SDS011;2729;50.056;8.678;2022-11-25T06:41:54;3.63;;;3.33;;
5412;SDS011;2729;50.056;8.678;2022-11-25T06:44:20;4.53;;;3.53;;
5412;SDS011;2729;50.056;8.678;2022-11-25T06:46:46;6.60;;;4.33;;
5412;SDS011;2729;50.056;8.678;2022-11-25T06:49:17;3.70;;;3.40;;
5412;SDS011;2729;50.056;8.678;2022-11-25T06:51:49;9.70;;;3.80;;
5412;SDS011;2729;50.056;8.678;2022-11-25T06:54:15;5.43;;;3.47;;
5412;SDS011;2729;50.056;8.678;2022-11-25T06:56:41;6.17;;;3.80;;
5412;SDS011;2729;50.056;8.678;2022-11-25T06:59:07;4.17;;;3.80;;
5412;SDS011;2729;50.056;8.678;2022-11-25T07:01:33;4.97;;;4.30;;
5412;SDS011;2729;50.056;8.678;2022-11-25T07:04:01;5.77;;;4.10;;
5412;SDS011;2729;50.056;8.678;2022-11-25T07:06:29;6.67;;;3.63;;
5412;SDS011;2729;50.056;8.678;2022-11-25T07:08:56;5.60;;;3.83;;
5412;SDS011;2729;50.056;8.678;2022-11-25T07:11:23;4.70;;;3.90;;
5412;SDS011;2729;50.056;8.678;2022-11-25T07:13:53;7.43;;;3.80;;
5412;SDS011;2729;50.056;8.678;2022-11-25T07:16:23;3.70;;;3.33;;
5412;SDS011;2729;50.056;8.678;2022-11-25T07:18:50;8.03;;;4.03;;
5412;SDS011;2729;50.056;8.678;2022-11-25T07:21:17;8.00;;;3.57;;
5412;SDS011;2729;50.056;8.678;2022-11-25T07:23:45;7.00;;;3.87;;
5412;SDS011;2729;50.056;8.678;2022-11-25T07:26:13;4.87;;;3.80;;
5412;SDS011;2729;50.056;8.678;2022-11-25T07:28:41;6.73;;;4.30;;
5412;SDS011;2729;50.056;8.678;2022-11-25T07:33:40;10.00;;;3.93;;
5412;SDS011;2729;50.056;8.678;2022-11-25T07:36:07;6.00;;;3.93;;
5412;SDS011;2729;50.056;8.678;2022-11-25T07:38:35;9.43;;;4.27;;
5412;SDS011;2729;50.056;8.678;2022-11-25T07:41:02;10.90;;;3.97;;
5412;SDS011;2729;50.056;8.678;2022-11-25T07:43:33;10.30;;;4.27;;
5412;SDS011;2729;50.056;8.678;2022-11-25T07:46:13;10.17;;;4.80;;
5412;SDS011;2729;50.056;8.678;2022-11-25T07:48:42;7.03;;;4.30;;
5412;SDS011;2729;50.056;8.678;2022-11-25T07:51:19;13.30;;;4.67;;
5412;SDS011;2729;50.056;8.678;2022-11-25T07:53:48;7.70;;;3.83;;
5412;SDS011;2729;50.056;8.678;2022-11-25T07:56:15;4.97;;;3.70;;
5412;SDS011;2729;50.056;8.678;2022-11-25T07:58:42;11.30;;;4.43;;
5412;SDS011;2729;50.056;8.678;2022-11-25T08:01:10;6.13;;;3.80;;
5412;SDS011;2729;50.056;8.678;2022-11-25T08:03:38;4.53;;;4.07;;
5412;SDS011;2729;50.056;8.678;2022-11-25T08:06:06;11.70;;;4.43;;
5412;SDS011;2729;50.056;8.678;2022-11-25T08:08:35;8.80;;;4.40;;
5412;SDS011;2729;50.056;8.678;2022-11-25T08:11:06;6.40;;;4.30;;
5412;SDS011;2729;50.056;8.678;2022-11-25T08:13:36;13.93;;;3.97;;
5412;SDS011;2729;50.056;8.678;2022-11-25T08:16:03;5.00;;;3.73;;
5412;SDS011;2729;50.056;8.678;2022-11-25T08:18:30;7.53;;;4.33;;
5412;SDS011;2729;50.056;8.678;2022-11-25T08:20:59;5.90;;;4.27;;
5412;SDS011;2729;50.056;8.678;2022-11-25T08:23:29;12.30;;;4.07;;
5412;SDS011;2729;50.056;8.678;2022-11-25T08:25:57;7.20;;;4.10;;
5412;SDS011;2729;50.056;8.678;2022-11-25T08:28:28;8.47;;;4.83;;
5412;SDS011;2729;50.056;8.678;2022-11-25T08:31:00;8.47;;;4.83;;
5412;SDS011;2729;50.056;8.678;2022-11-25T08:33:28;7.80;;;4.00;;
5412;SDS011;2729;50.056;8.678;2022-11-25T08:35:54;5.73;;;4.30;;
5412;SDS011;2729;50.056;8.678;2022-11-25T08:38:20;14.67;;;4.47;;
5412;SDS011;2729;50.056;8.678;2022-11-25T08:40:46;9.50;;;4.63;;
5412;SDS011;2729;50.056;8.678;2022-11-25T08:43:12;8.80;;;4.17;;
5412;SDS011;2729;50.056;8.678;2022-11-25T08:45:38;16.53;;;4.50;;
5412;SDS011;2729;50.056;8.678;2022-11-25T08:48:05;11.10;;;5.10;;
5412;SDS011;2729;50.056;8.678;2022-11-25T08:50:31;5.30;;;3.70;;
5412;SDS011;2729;50.056;8.678;2022-11-25T08:52:57;12.20;;;4.70;;
5412;SDS011;2729;50.056;8.678;2022-11-25T08:55:26;10.13;;;4.20;;
5412;SDS011;2729;50.056;8.678;2022-11-25T08:57:53;6.77;;;4.30;;
5412;SDS011;2729;50.056;8.678;2022-11-25T09:00:19;8.23;;;4.70;;
5412;SDS011;2729;50.056;8.678;2022-11-25T09:02:46;7.83;;;5.00;;
5412;SDS011;2729;50.056;8.678;2022-11-25T09:05:13;7.67;;;4.13;;
5412;SDS011;2729;50.056;8.678;2022-11-25T09:07:40;13.23;;;4.70;;
5412;SDS011;2729;50.056;8.678;2022-11-25T09:10:08;5.80;;;4.47;;
5412;SDS011;2729;50.056;8.678;2022-11-25T09:12:41;7.93;;;4.87;;
5412;SDS011;2729;50.056;8.678;2022-11-25T09:15:07;5.50;;;4.13;;
5412;SDS011;2729;50.056;8.678;2022-11-25T09:17:34;8.30;;;4.67;;
5412;SDS011;2729;50.056;8.678;2022-11-25T09:20:05;11.00;;;4.57;;
5412;SDS011;2729;50.056;8.678;2022-11-25T09:22:31;7.37;;;4.63;;
5412;SDS011;2729;50.056;8.678;2022-11-25T09:24:57;8.40;;;4.87;;
5412;SDS011;2729;50.056;8.678;2022-11-25T09:27:23;10.03;;;4.97;;
5412;SDS011;2729;50.056;8.678;2022-11-25T09:29:49;6.33;;;4.60;;
5412;SDS011;2729;50.056;8.678;2022-11-25T09:32:15;8.83;;;5.10;;
5412;SDS011;2729;50.056;8.678;2022-11-25T09:34:41;10.53;;;5.13;;
5412;SDS011;2729;50.056;8.678;2022-11-25T09:37:07;6.93;;;4.87;;
5412;SDS011;2729;50.056;8.678;2022-11-25T09:39:33;6.40;;;4.07;;
5412;SDS011;2729;50.056;8.678;2022-11-25T09:51:31;7.90;;;4.97;;
5412;SDS011;2729;50.056;8.678;2022-11-25T09:54:07;9.27;;;4.40;;
5412;SDS011;2729;50.056;8.678;2022-11-25T09:56:42;11.93;;;5.00;;
5412;SDS011;2729;50.056;8.678;2022-11-25T10:05:17;11.07;;;6.80;;
5412;SDS011;2729;50.056;8.678;2022-11-25T10:07:50;11.53;;;4.53;;
5412;SDS011;2729;50.056;8.678;2022-11-25T10:10:21;8.10;;;5.20;;
5412;SDS011;2729;50.056;8.678;2022-11-25T10:12:50;19.27;;;5.10;;
5412;SDS011;2729;50.056;8.678;2022-11-25T10:15:22;13.47;;;5.07;;
5412;SDS011;2729;50.056;8.678;2022-11-25T10:17:57;23.73;;;5.60;;
5412;SDS011;2729;50.056;8.678;2022-11-25T10:20:32;12.00;;;5.13;;
5412;SDS011;2729;50.056;8.678;2022-11-25T10:25:36;7.07;;;5.40;;
5412;SDS011;2729;50.056;8.678;2022-11-25T10:30:59;13.67;;;6.10;;
5412;SDS011;2729;50.056;8.678;2022-11-25T10:33:31;23.17;;;5.83;;
5412;SDS011;2729;50.056;8.678;2022-11-25T10:38:43;10.10;;;5.27;;
5412;SDS011;2729;50.056;8.678;2022-11-25T10:41:56;11.90;;;6.00;;
5412;SDS011;2729;50.056;8.678;2022-11-25T10:44:31;11.93;;;5.80;;
5412;SDS011;2729;50.056;8.678;2022-11-25T10:47:11;11.83;;;5.90;;
5412;SDS011;2729;50.056;8.678;2022-11-25T10:50:06;13.50;;;5.50;;
5412;SDS011;2729;50.056;8.678;2022-11-25T10:55:24;12.23;;;5.90;;
5412;SDS011;2729;50.056;8.678;2022-11-25T10:57:52;13.90;;;6.30;;
5412;SDS011;2729;50.056;8.678;2022-11-25T11:00:30;14.33;;;6.63;;
5412;SDS011;2729;50.056;8.678;2022-11-25T11:03:14;12.63;;;6.90;;
5412;SDS011;2729;50.056;8.678;2022-11-25T11:05:48;11.57;;;6.80;;
5412;SDS011;2729;50.056;8.678;2022-11-25T11:10:46;20.87;;;6.20;;
5412;SDS011;2729;50.056;8.678;2022-11-25T11:13:33;11.93;;;5.33;;
5412;SDS011;2729;50.056;8.678;2022-11-25T11:15:59;14.00;;;5.20;;
5412;SDS011;2729;50.056;8.678;2022-11-25T11:18:27;10.50;;;6.00;;
5412;SDS011;2729;50.056;8.678;2022-11-25T11:21:03;6.40;;;5.40;;
5412;SDS011;2729;50.056;8.678;2022-11-25T11:23:31;6.37;;;4.67;;
5412;SDS011;2729;50.056;8.678;2022-11-25T11:26:20;8.27;;;5.03;;
5412;SDS011;2729;50.056;8.678;2022-11-25T11:28:57;9.43;;;5.23;;
5412;SDS011;2729;50.056;8.678;2022-11-25T11:31:26;10.53;;;4.60;;
5412;SDS011;2729;50.056;8.678;2022-11-25T11:34:02;15.00;;;4.97;;
5412;SDS011;2729;50.056;8.678;2022-11-25T11:36:47;7.43;;;4.70;;
5412;SDS011;2729;50.056;8.678;2022-11-25T11:42:21;7.50;;;4.57;;
5412;SDS011;2729;50.056;8.678;2022-11-25T11:50:23;11.27;;;4.20;;
5412;SDS011;2729;50.056;8.678;2022-11-25T11:52:57;6.00;;;4.07;;
5412;SDS011;2729;50.056;8.678;2022-11-25T12:01:28;8.00;;;4.00;;
5412;SDS011;2729;50.056;8.678;2022-11-25T12:04:15;7.53;;;4.17;;
5412;SDS011;2729;50.056;8.678;2022-11-25T12:06:58;9.30;;;5.17;;
5412;SDS011;2729;50.056;8.678;2022-11-25T12:09:26;8.50;;;4.90;;
5412;SDS011;2729;50.056;8.678;2022-11-25T12:11:56;10.60;;;5.10;;
5412;SDS011;2729;50.056;8.678;2022-11-25T12:14:47;14.73;;;5.23;;
5412;SDS011;2729;50.056;8.678;2022-11-25T12:17:33;12.97;;;4.90;;
5412;SDS011;2729;50.056;8.678;2022-11-25T12:20:05;5.87;;;3.57;;
5412;SDS011;2729;50.056;8.678;2022-11-25T12:22:46;5.73;;;4.50;;
5412;SDS011;2729;50.056;8.678;2022-11-25T12:25:23;6.57;;;4.27;;
5412;SDS011;2729;50.056;8.678;2022-11-25T12:30:52;7.97;;;4.00;;
5412;SDS011;2729;50.056;8.678;2022-11-25T12:33:35;6.30;;;4.50;;
5412;SDS011;2729;50.056;8.678;2022-11-25T12:36:16;7.60;;;4.30;;
5412;SDS011;2729;50.056;8.678;2022-11-25T12:38:52;7.23;;;4.33;;
5412;SDS011;2729;50.056;8.678;2022-11-25T12:41:25;15.27;;;4.37;;
5412;SDS011;2729;50.056;8.678;2022-11-25T12:43:58;15.63;;;4.00;;
5412;SDS011;2729;50.056;8.678;2022-11-25T12:46:36;6.07;;;4.03;;
5412;SDS011;2729;50.056;8.678;2022-11-25T12:49:19;7.27;;;4.20;;
5412;SDS011;2729;50.056;8.678;2022-11-25T12:51:56;10.60;;;4.20;;
5412;SDS011;2729;50.056;8.678;2022-11-25T12:54:53;5.60;;;4.07;;
5412;SDS011;2729;50.056;8.678;2022-11-25T13:00:20;4.70;;;3.80;;
5412;SDS011;2729;50.056;8.678;2022-11-25T13:17:13;7.77;;;4.27;;
5412;SDS011;2729;50.056;8.678;2022-11-25T13:19:40;12.63;;;3.80;;
5412;SDS011;2729;50.056;8.678;2022-11-25T13:34:24;10.73;;;4.07;;
5412;SDS011;2729;50.056;8.678;2022-11-25T13:36:54;5.50;;;3.97;;
5412;SDS011;2729;50.056;8.678;2022-11-25T13:48:43;10.13;;;4.47;;
5412;SDS011;2729;50.056;8.678;2022-11-25T13:51:20;11.60;;;4.50;;
5412;SDS011;2729;50.056;8.678;2022-11-25T13:53:50;13.93;;;4.67;;
5412;SDS011;2729;50.056;8.678;2022-11-25T14:04:11;9.80;;;3.70;;
5412;SDS011;2729;50.056;8.678;2022-11-25T14:06:54;8.00;;;3.77;;
5412;SDS011;2729;50.056;8.678;2022-11-25T14:15:24;6.43;;;3.90;;
5412;SDS011;2729;50.056;8.678;2022-11-25T14:23:30;6.70;;;3.40;;
5412;SDS011;2729;50.056;8.678;2022-11-25T14:26:23;6.27;;;3.07;;
5412;SDS011;2729;50.056;8.678;2022-11-25T14:28:54;4.80;;;3.30;;
5412;SDS011;2729;50.056;8.678;2022-11-25T14:32:08;9.00;;;4.40;;
5412;SDS011;2729;50.056;8.678;2022-11-25T14:34:29;7.20;;;3.60;;
5412;SDS011;2729;50.056;8.678;2022-11-25T14:37:00;11.67;;;4.77;;
5412;SDS011;2729;50.056;8.678;2022-11-25T14:39:35;7.70;;;3.50;;
5412;SDS011;2729;50.056;8.678;2022-11-25T14:42:09;10.47;;;3.70;;
5412;SDS011;2729;50.056;8.678;2022-11-25T14:44:46;5.43;;;3.40;;
5412;SDS011;2729;50.056;8.678;2022-11-25T14:47:14;8.10;;;3.83;;
5412;SDS011;2729;50.056;8.678;2022-11-25T14:49:49;5.17;;;3.20;;
5412;SDS011;2729;50.056;8.678;2022-11-25T14:52:27;8.43;;;4.10;;
5412;SDS011;2729;50.056;8.678;2022-11-25T14:54:57;6.90;;;3.63;;
5412;SDS011;2729;50.056;8.678;2022-11-25T14:57:25;7.03;;;3.27;;
5412;SDS011;2729;50.056;8.678;2022-11-25T14:59:55;4.10;;;3.17;;
5412;SDS011;2729;50.056;8.678;2022-11-25T15:02:24;3.40;;;3.10;;
5412;SDS011;2729;50.056;8.678;2022-11-25T15:07:40;3.53;;;2.90;;
5412;SDS011;2729;50.056;8.678;2022-11-25T15:12:55;9.53;;;3.57;;
5412;SDS011;2729;50.056;8.678;2022-11-25T15:15:22;7.73;;;3.73;;
5412;SDS011;2729;50.056;8.678;2022-11-25T15:17:51;7.90;;;4.40;;
5412;SDS011;2729;50.056;8.678;2022-11-25T15:20:20;9.37;;;3.80;;
5412;SDS011;2729;50.056;8.678;2022-11-25T15:22:59;3.90;;;3.60;;
5412;SDS011;2729;50.056;8.678;2022-11-25T15:25:25;18.50;;;4.00;;
5412;SDS011;2729;50.056;8.678;2022-11-25T15:27:51;4.97;;;3.60;;
5412;SDS011;2729;50.056;8.678;2022-11-25T15:32:49;6.57;;;3.13;;
5412;SDS011;2729;50.056;8.678;2022-11-25T15:35:17;7.83;;;4.50;;
5412;SDS011;2729;50.056;8.678;2022-11-25T15:37:46;10.23;;;4.20;;
5412;SDS011;2729;50.056;8.678;2022-11-25T15:40:29;8.20;;;3.90;;
5412;SDS011;2729;50.056;8.678;2022-11-25T15:43:04;6.87;;;4.67;;
5412;SDS011;2729;50.056;8.678;2022-11-25T15:45:36;4.67;;;3.27;;
5412;SDS011;2729;50.056;8.678;2022-11-25T15:48:42;13.17;;;4.33;;
5412;SDS011;2729;50.056;8.678;2022-11-25T15:56:44;14.10;;;4.67;;
5412;SDS011;2729;50.056;8.678;2022-11-25T16:02:01;7.57;;;5.27;;
5412;SDS011;2729;50.056;8.678;2022-11-25T16:04:27;11.13;;;4.70;;
5412;SDS011;2729;50.056;8.678;2022-11-25T16:06:54;13.37;;;4.40;;
5412;SDS011;2729;50.056;8.678;2022-11-25T16:09:22;17.53;;;4.97;;
5412;SDS011;2729;50.056;8.678;2022-11-25T16:11:49;15.80;;;5.73;;
5412;SDS011;2729;50.056;8.678;2022-11-25T16:16:44;9.27;;;4.97;;
5412;SDS011;2729;50.056;8.678;2022-11-25T16:19:15;13.10;;;5.20;;
5412;SDS011;2729;50.056;8.678;2022-11-25T16:21:50;19.63;;;5.13;;
5412;SDS011;2729;50.056;8.678;2022-11-25T16:24:35;9.17;;;5.03;;
5412;SDS011;2729;50.056;8.678;2022-11-25T16:27:26;7.93;;;4.50;;
5412;SDS011;2729;50.056;8.678;2022-11-25T16:29:56;10.33;;;4.60;;
5412;SDS011;2729;50.056;8.678;2022-11-25T16:32:33;10.00;;;5.10;;
5412;SDS011;2729;50.056;8.678;2022-11-25T16:35:12;11.23;;;5.10;;
5412;SDS011;2729;50.056;8.678;2022-11-25T16:37:45;8.90;;;4.07;;
5412;SDS011;2729;50.056;8.678;2022-11-25T16:40:11;9.07;;;4.77;;
5412;SDS011;2729;50.056;8.678;2022-11-25T16:42:38;6.53;;;3.90;;
5412;SDS011;2729;50.056;8.678;2022-11-25T16:45:26;8.07;;;4.23;;
5412;SDS011;2729;50.056;8.678;2022-11-25T16:47:51;18.47;;;4.50;;
5412;SDS011;2729;50.056;8.678;2022-11-25T16:50:18;8.70;;;4.70;;
5412;SDS011;2729;50.056;8.678;2022-11-25T16:52:45;9.90;;;5.47;;
5412;SDS011;2729;50.056;8.678;2022-11-25T16:55:12;6.10;;;4.40;;
5412;SDS011;2729;50.056;8.678;2022-11-25T16:57:39;5.80;;;4.13;;
5412;SDS011;2729;50.056;8.678;2022-11-25T17:00:07;7.53;;;4.20;;
5412;SDS011;2729;50.056;8.678;2022-11-25T17:02:38;5.03;;;4.23;;
5412;SDS011;2729;50.056;8.678;2022-11-25T17:05:15;6.53;;;4.20;;
5412;SDS011;2729;50.056;8.678;2022-11-25T17:07:43;13.00;;;5.10;;
5412;SDS011;2729;50.056;8.678;2022-11-25T17:10:09;6.73;;;4.40;;
5412;SDS011;2729;50.056;8.678;2022-11-25T17:12:35;6.13;;;3.67;;
5412;SDS011;2729;50.056;8.678;2022-11-25T17:15:04;7.00;;;3.50;;
5412;SDS011;2729;50.056;8.678;2022-11-25T17:17:32;9.87;;;4.63;;
5412;SDS011;2729;50.056;8.678;2022-11-25T17:19:58;11.23;;;4.97;;
5412;SDS011;2729;50.056;8.678;2022-11-25T17:22:25;10.30;;;4.63;;
5412;SDS011;2729;50.056;8.678;2022-11-25T17:24:52;6.13;;;4.27;;
5412;SDS011;2729;50.056;8.678;2022-11-25T17:27:20;5.10;;;3.73;;
5412;SDS011;2729;50.056;8.678;2022-11-25T17:29:51;15.27;;;4.17;;
5412;SDS011;2729;50.056;8.678;2022-11-25T17:32:19;9.40;;;3.33;;
5412;SDS011;2729;50.056;8.678;2022-11-25T17:34:45;7.90;;;4.33;;
5412;SDS011;2729;50.056;8.678;2022-11-25T17:37:12;11.63;;;3.80;;
5412;SDS011;2729;50.056;8.678;2022-11-25T17:39:40;14.20;;;3.93;;
5412;SDS011;2729;50.056;8.678;2022-11-25T17:42:06;6.27;;;3.87;;